sensor_id;sensor_type;location;lat;lon;timestamp;pressure;altitude;pressure_sealevel;temperature;humidity
21760;BME280;11041;50.854;20.580;2022-11-04T00:02:04;98440.56;;;6.15;90.38
21760;BME280;11041;50.854;20.580;2022-11-04T00:04:30;98422.50;;;6.01;90.27
21760;BME280;11041;50.854;20.580;2022-11-04T00:06:57;98434.09;;;6.11;90.23
21760;BME280;11041;50.854;20.580;2022-11-04T00:09:28;98423.91;;;5.98;89.69
21760;BME280;11041;50.854;20.580;2022-11-04T00:11:56;98449.59;;;6.16;89.93
21760;BME280;11041;50.854;20.580;2022-11-04T00:14:42;98433.06;;;6.07;89.75
21760;BME280;11041;50.854;20.580;2022-11-04T00:17:12;98405.59;;;5.98;90.36
21760;BME280;11041;50.854;20.580;2022-11-04T00:19:51;98428.56;;;6.16;90.59
21760;BME280;11041;50.854;20.580;2022-11-04T00:22:37;98409.09;;;6.04;89.95
21760;BME280;11041;50.854;20.580;2022-11-04T00:25:23;98396.94;;;5.91;90.24
21760;BME280;11041;50.854;20.580;2022-11-04T00:28:15;98397.78;;;5.92;90.62
21760;BME280;11041;50.854;20.580;2022-11-04T00:31:03;98390.66;;;5.96;90.96
21760;BME280;11041;50.854;20.580;2022-11-04T00:33:52;98397.94;;;6.01;90.58
21760;BME280;11041;50.854;20.580;2022-11-04T00:36:20;98400.41;;;6.02;90.60
21760;BME280;11041;50.854;20.580;2022-11-04T00:38:47;98392.22;;;6.02;90.79
21760;BME280;11041;50.854;20.580;2022-11-04T00:41:13;98412.13;;;6.22;90.67
21760;BME280;11041;50.854;20.580;2022-11-04T00:44:01;98404.97;;;6.26;90.75
21760;BME280;11041;50.854;20.580;2022-11-04T00:46:31;98401.41;;;6.25;90.92
21760;BME280;11041;50.854;20.580;2022-11-04T00:48:59;98378.94;;;6.14;90.80
21760;BME280;11041;50.854;20.580;2022-11-04T00:51:26;98395.06;;;6.30;90.99
21760;BME280;11041;50.854;20.580;2022-11-04T00:53:53;98376.66;;;6.22;90.89
21760;BME280;11041;50.854;20.580;2022-11-04T00:56:20;98388.97;;;6.38;90.74
21760;BME280;11041;50.854;20.580;2022-11-04T00:58:47;98386.25;;;6.38;90.71
21760;BME280;11041;50.854;20.580;2022-11-04T01:01:17;98391.63;;;6.43;90.15
21760;BME280;11041;50.854;20.580;2022-11-04T01:03:45;98358.59;;;6.26;90.18
21760;BME280;11041;50.854;20.580;2022-11-04T01:06:12;98379.66;;;6.39;90.21
21760;BME280;11041;50.854;20.580;2022-11-04T01:08:39;98370.75;;;6.33;90.03
21760;BME280;11041;50.854;20.580;2022-11-04T01:11:08;98381.22;;;6.45;89.95
21760;BME280;11041;50.854;20.580;2022-11-04T01:13:37;98375.25;;;6.43;89.75
21760;BME280;11041;50.854;20.580;2022-11-04T01:16:07;98379.91;;;6.43;90.23
21760;BME280;11041;50.854;20.580;2022-11-04T01:18:35;98364.25;;;6.29;90.36
21760;BME280;11041;50.854;20.580;2022-11-04T01:21:05;98360.72;;;6.29;89.97
21760;BME280;11041;50.854;20.580;2022-11-04T01:23:35;98362.84;;;6.32;90.28
21760;BME280;11041;50.854;20.580;2022-11-04T01:26:07;98350.41;;;6.26;90.08
21760;BME280;11041;50.854;20.580;2022-11-04T01:28:34;98347.00;;;6.15;89.85
21760;BME280;11041;50.854;20.580;2022-11-04T01:31:18;98380.78;;;6.38;90.03
21760;BME280;11041;50.854;20.580;2022-11-04T01:33:50;98378.34;;;6.36;89.94
21760;BME280;11041;50.854;20.580;2022-11-04T01:36:18;98348.78;;;6.25;90.31
21760;BME280;11041;50.854;20.580;2022-11-04T01:38:46;98362.25;;;6.35;89.75
21760;BME280;11041;50.854;20.580;2022-11-04T01:41:23;98353.56;;;6.33;90.30
21760;BME280;11041;50.854;20.580;2022-11-04T01:43:57;98353.19;;;6.39;89.86
21760;BME280;11041;50.854;20.580;2022-11-04T01:46:45;98352.88;;;6.41;89.43
21760;BME280;11041;50.854;20.580;2022-11-04T01:49:36;98325.25;;;6.29;89.84
21760;BME280;11041;50.854;20.580;2022-11-04T01:52:17;98336.00;;;6.39;89.88
21760;BME280;11041;50.854;20.580;2022-11-04T01:54:48;98332.91;;;6.46;89.69
21760;BME280;11041;50.854;20.580;2022-11-04T01:57:28;98331.47;;;6.48;89.63
21760;BME280;11041;50.854;20.580;2022-11-04T02:00:01;98315.81;;;6.40;89.62
21760;BME280;11041;50.854;20.580;2022-11-04T02:02:29;98309.22;;;6.41;88.86
21760;BME280;11041;50.854;20.580;2022-11-04T02:04:56;98323.81;;;6.50;88.90
21760;BME280;11041;50.854;20.580;2022-11-04T02:07:23;98308.41;;;6.40;89.05
21760;BME280;11041;50.854;20.580;2022-11-04T02:09:50;98313.50;;;6.47;89.02
21760;BME280;11041;50.854;20.580;2022-11-04T02:12:17;98325.56;;;6.60;88.81
21760;BME280;11041;50.854;20.580;2022-11-04T02:15:03;98304.09;;;6.53;88.62
21760;BME280;11041;50.854;20.580;2022-11-04T02:29:45;98307.81;;;6.76;87.92
21760;BME280;11041;50.854;20.580;2022-11-04T02:33:02;98267.72;;;6.58;87.62
21760;BME280;11041;50.854;20.580;2022-11-04T02:36:03;98295.03;;;6.72;87.36
21760;BME280;11041;50.854;20.580;2022-11-04T02:38:51;98287.88;;;6.76;87.52
21760;BME280;11041;50.854;20.580;2022-11-04T02:47:35;98265.38;;;6.51;87.48
21760;BME280;11041;50.854;20.580;2022-11-04T02:50:41;98287.53;;;6.64;87.12
21760;BME280;11041;50.854;20.580;2022-11-04T02:53:22;98303.91;;;6.64;86.92
21760;BME280;11041;50.854;20.580;2022-11-04T02:55:56;98255.03;;;6.34;86.88
21760;BME280;11041;50.854;20.580;2022-11-04T02:58:37;98265.03;;;6.39;87.45
21760;BME280;11041;50.854;20.580;2022-11-04T03:01:07;98282.06;;;6.50;87.24
21760;BME280;11041;50.854;20.580;2022-11-04T03:03:40;98243.41;;;6.29;87.49
21760;BME280;11041;50.854;20.580;2022-11-04T03:06:11;98241.19;;;6.31;87.19
21760;BME280;11041;50.854;20.580;2022-11-04T03:08:46;98234.09;;;6.30;87.45
21760;BME280;11041;50.854;20.580;2022-11-04T03:11:19;98244.53;;;6.42;87.82
21760;BME280;11041;50.854;20.580;2022-11-04T03:13:54;98258.41;;;6.45;87.74
21760;BME280;11041;50.854;20.580;2022-11-04T03:16:38;98261.13;;;6.45;87.87
21760;BME280;11041;50.854;20.580;2022-11-04T03:22:33;98265.47;;;6.46;87.68
21760;BME280;11041;50.854;20.580;2022-11-04T03:25:04;98240.81;;;6.37;87.88
21760;BME280;11041;50.854;20.580;2022-11-04T03:30:17;98251.31;;;6.44;87.52
21760;BME280;11041;50.854;20.580;2022-11-04T03:35:31;98231.78;;;6.37;87.93
21760;BME280;11041;50.854;20.580;2022-11-04T03:37:59;98221.38;;;6.39;87.60
21760;BME280;11041;50.854;20.580;2022-11-04T03:40:25;98218.03;;;6.42;88.10
21760;BME280;11041;50.854;20.580;2022-11-04T03:43:01;98238.19;;;6.60;87.84
21760;BME280;11041;50.854;20.580;2022-11-04T03:45:29;98207.34;;;6.46;88.00
21760;BME280;11041;50.854;20.580;2022-11-04T03:47:58;98218.38;;;6.54;88.10
21760;BME280;11041;50.854;20.580;2022-11-04T03:50:33;98234.66;;;6.59;88.42
21760;BME280;11041;50.854;20.580;2022-11-04T03:53:01;98204.81;;;6.49;89.22
21760;BME280;11041;50.854;20.580;2022-11-04T04:07:00;98225.06;;;6.62;89.77
21760;BME280;11041;50.854;20.580;2022-11-04T04:12:23;98209.47;;;6.63;89.90
21760;BME280;11041;50.854;20.580;2022-11-04T04:15:01;98212.00;;;6.59;90.49
21760;BME280;11041;50.854;20.580;2022-11-04T04:17:39;98217.66;;;6.63;90.38
21760;BME280;11041;50.854;20.580;2022-11-04T04:20:15;98200.59;;;6.57;90.25
21760;BME280;11041;50.854;20.580;2022-11-04T04:22:54;98214.56;;;6.69;90.52
21760;BME280;11041;50.854;20.580;2022-11-04T04:25:27;98218.78;;;6.75;90.50
21760;BME280;11041;50.854;20.580;2022-11-04T04:28:16;98224.25;;;6.75;90.07
21760;BME280;11041;50.854;20.580;2022-11-04T04:30:45;98221.22;;;6.77;90.20
21760;BME280;11041;50.854;20.580;2022-11-04T04:33:17;98191.69;;;6.65;90.25
21760;BME280;11041;50.854;20.580;2022-11-04T04:35:55;98199.78;;;6.70;90.25
21760;BME280;11041;50.854;20.580;2022-11-04T04:38:28;98202.28;;;6.80;90.46
21760;BME280;11041;50.854;20.580;2022-11-04T04:41:25;98179.34;;;6.68;90.56
21760;BME280;11041;50.854;20.580;2022-11-04T04:44:25;98196.03;;;6.80;90.29
21760;BME280;11041;50.854;20.580;2022-11-04T04:47:21;98150.03;;;6.59;90.33
21760;BME280;11041;50.854;20.580;2022-11-04T04:49:54;98170.47;;;6.76;90.72
21760;BME280;11041;50.854;20.580;2022-11-04T04:52:26;98170.75;;;6.74;91.24
21760;BME280;11041;50.854;20.580;2022-11-04T04:54:53;98161.94;;;6.77;91.05
21760;BME280;11041;50.854;20.580;2022-11-04T04:57:19;98162.66;;;6.83;91.68
21760;BME280;11041;50.854;20.580;2022-11-04T04:59:46;98136.56;;;6.77;91.63
21760;BME280;11041;50.854;20.580;2022-11-04T05:02:12;98131.41;;;6.75;91.59
21760;BME280;11041;50.854;20.580;2022-11-04T05:04:39;98132.53;;;6.74;91.68
21760;BME280;11041;50.854;20.580;2022-11-04T05:07:06;98128.00;;;6.70;92.07
21760;BME280;11041;50.854;20.580;2022-11-04T05:09:35;98164.38;;;6.79;92.26
21760;BME280;11041;50.854;20.580;2022-11-04T05:12:03;98165.00;;;6.76;92.31
21760;BME280;11041;50.854;20.580;2022-11-04T05:14:29;98164.19;;;6.75;92.26
21760;BME280;11041;50.854;20.580;2022-11-04T05:16:56;98172.06;;;6.77;92.57
21760;BME280;11041;50.854;20.580;2022-11-04T05:19:22;98153.75;;;6.64;92.74
21760;BME280;11041;50.854;20.580;2022-11-04T05:21:49;98155.06;;;6.66;92.84
21760;BME280;11041;50.854;20.580;2022-11-04T05:24:15;98144.78;;;6.63;92.77
21760;BME280;11041;50.854;20.580;2022-11-04T05:26:42;98161.88;;;6.69;92.95
21760;BME280;11041;50.854;20.580;2022-11-04T05:29:09;98160.94;;;6.73;92.68
21760;BME280;11041;50.854;20.580;2022-11-04T05:31:35;98177.31;;;6.87;92.71
21760;BME280;11041;50.854;20.580;2022-11-04T05:34:02;98168.31;;;6.87;92.74
21760;BME280;11041;50.854;20.580;2022-11-04T05:36:31;98169.63;;;6.89;92.32
21760;BME280;11041;50.854;20.580;2022-11-04T05:39:00;98172.88;;;6.91;92.43
21760;BME280;11041;50.854;20.580;2022-11-04T05:41:27;98164.16;;;6.89;92.71
21760;BME280;11041;50.854;20.580;2022-11-04T05:44:02;98140.91;;;6.78;92.66
21760;BME280;11041;50.854;20.580;2022-11-04T05:46:30;98142.03;;;6.77;92.28
21760;BME280;11041;50.854;20.580;2022-11-04T05:48:56;98126.56;;;6.72;92.57
21760;BME280;11041;50.854;20.580;2022-11-04T05:51:26;98150.22;;;6.91;92.53
21760;BME280;11041;50.854;20.580;2022-11-04T05:53:53;98117.25;;;6.73;92.65
21760;BME280;11041;50.854;20.580;2022-11-04T05:56:20;98136.16;;;6.83;92.56
21760;BME280;11041;50.854;20.580;2022-11-04T05:58:46;98141.63;;;6.83;92.63
21760;BME280;11041;50.854;20.580;2022-11-04T06:01:32;98151.03;;;6.91;92.31
21760;BME280;11041;50.854;20.580;2022-11-04T06:04:01;98115.25;;;6.79;92.35
21760;BME280;11041;50.854;20.580;2022-11-04T06:06:33;98114.91;;;6.80;92.54
21760;BME280;11041;50.854;20.580;2022-11-04T06:09:01;98112.69;;;6.82;92.28
21760;BME280;11041;50.854;20.580;2022-11-04T06:11:30;98126.84;;;6.98;92.50
21760;BME280;11041;50.854;20.580;2022-11-04T06:13:57;98125.81;;;6.94;92.73
21760;BME280;11041;50.854;20.580;2022-11-04T06:16:25;98127.75;;;6.94;92.59
21760;BME280;11041;50.854;20.580;2022-11-04T06:18:52;98122.69;;;6.87;92.78
21760;BME280;11041;50.854;20.580;2022-11-04T06:21:29;98121.78;;;6.92;92.45
21760;BME280;11041;50.854;20.580;2022-11-04T06:23:59;98113.28;;;6.93;92.54
21760;BME280;11041;50.854;20.580;2022-11-04T06:26:28;98117.63;;;6.94;92.35
21760;BME280;11041;50.854;20.580;2022-11-04T06:28:57;98137.41;;;7.14;92.60
21760;BME280;11041;50.854;20.580;2022-11-04T06:31:25;98135.00;;;7.12;92.47
21760;BME280;11041;50.854;20.580;2022-11-04T06:33:52;98120.97;;;7.05;92.11
21760;BME280;11041;50.854;20.580;2022-11-04T06:36:19;98113.56;;;7.06;91.93
21760;BME280;11041;50.854;20.580;2022-11-04T06:38:46;98123.88;;;7.09;91.56
21760;BME280;11041;50.854;20.580;2022-11-04T06:41:16;98118.59;;;7.12;91.79
21760;BME280;11041;50.854;20.580;2022-11-04T06:43:42;98118.50;;;7.17;91.76
21760;BME280;11041;50.854;20.580;2022-11-04T06:46:30;98134.22;;;7.34;91.96
21760;BME280;11041;50.854;20.580;2022-11-04T06:48:59;98133.09;;;7.35;91.47
21760;BME280;11041;50.854;20.580;2022-11-04T06:51:25;98136.84;;;7.39;91.45
21760;BME280;11041;50.854;20.580;2022-11-04T06:53:52;98118.75;;;7.30;91.33
21760;BME280;11041;50.854;20.580;2022-11-04T06:56:19;98128.94;;;7.38;91.21
21760;BME280;11041;50.854;20.580;2022-11-04T06:58:51;98132.75;;;7.51;91.02
21760;BME280;11041;50.854;20.580;2022-11-04T07:01:20;98135.47;;;7.51;91.15
21760;BME280;11041;50.854;20.580;2022-11-04T07:03:56;98129.19;;;7.50;91.12
21760;BME280;11041;50.854;20.580;2022-11-04T07:06:25;98101.47;;;7.43;90.98
21760;BME280;11041;50.854;20.580;2022-11-04T07:08:52;98129.44;;;7.62;91.14
21760;BME280;11041;50.854;20.580;2022-11-04T07:11:21;98127.06;;;7.69;90.35
21760;BME280;11041;50.854;20.580;2022-11-04T07:13:48;98128.84;;;7.65;90.08
21760;BME280;11041;50.854;20.580;2022-11-04T07:16:15;98150.16;;;7.77;90.10
21760;BME280;11041;50.854;20.580;2022-11-04T07:18:42;98138.56;;;7.80;90.05
21760;BME280;11041;50.854;20.580;2022-11-04T07:21:11;98143.75;;;7.82;90.04
21760;BME280;11041;50.854;20.580;2022-11-04T07:23:38;98143.28;;;7.88;89.54
21760;BME280;11041;50.854;20.580;2022-11-04T07:26:07;98134.91;;;7.85;89.46
21760;BME280;11041;50.854;20.580;2022-11-04T07:28:34;98136.88;;;7.93;89.44
21760;BME280;11041;50.854;20.580;2022-11-04T07:31:03;98108.84;;;7.87;89.21
21760;BME280;11041;50.854;20.580;2022-11-04T07:33:30;98119.16;;;7.90;88.95
21760;BME280;11041;50.854;20.580;2022-11-04T07:36:07;98113.69;;;7.90;88.79
21760;BME280;11041;50.854;20.580;2022-11-04T07:38:34;98098.06;;;7.82;88.73
21760;BME280;11041;50.854;20.580;2022-11-04T07:41:01;98095.31;;;7.82;88.62
21760;BME280;11041;50.854;20.580;2022-11-04T07:43:28;98074.53;;;7.81;88.73
21760;BME280;11041;50.854;20.580;2022-11-04T07:46:09;98099.94;;;8.04;88.88
21760;BME280;11041;50.854;20.580;2022-11-04T07:48:37;98097.50;;;8.03;88.87
21760;BME280;11041;50.854;20.580;2022-11-04T07:51:07;98110.78;;;8.18;88.79
21760;BME280;11041;50.854;20.580;2022-11-04T07:53:35;98086.41;;;8.08;88.53
21760;BME280;11041;50.854;20.580;2022-11-04T07:56:26;98095.69;;;8.29;88.70
21760;BME280;11041;50.854;20.580;2022-11-04T07:59:17;98087.63;;;8.24;88.39
21760;BME280;11041;50.854;20.580;2022-11-04T08:02:10;98089.97;;;8.40;88.02
21760;BME280;11041;50.854;20.580;2022-11-04T08:55:15;98029.81;;;9.18;85.72
21760;BME280;11041;50.854;20.580;2022-11-04T08:57:42;98032.88;;;9.25;86.13
21760;BME280;11041;50.854;20.580;2022-11-04T09:00:09;98030.13;;;9.34;85.60
21760;BME280;11041;50.854;20.580;2022-11-04T09:02:36;98033.00;;;9.37;85.18
21760;BME280;11041;50.854;20.580;2022-11-04T09:05:03;98032.03;;;9.42;84.76
21760;BME280;11041;50.854;20.580;2022-11-04T09:07:30;98034.44;;;9.52;84.57
21760;BME280;11041;50.854;20.580;2022-11-04T09:09:56;98022.34;;;9.53;84.63
21760;BME280;11041;50.854;20.580;2022-11-04T09:12:23;98026.69;;;9.63;84.63
21760;BME280;11041;50.854;20.580;2022-11-04T09:14:50;98030.03;;;9.69;84.88
21760;BME280;11041;50.854;20.580;2022-11-04T09:17:16;98023.75;;;9.77;84.85
21760;BME280;11041;50.854;20.580;2022-11-04T09:19:43;98020.00;;;9.81;84.11
21760;BME280;11041;50.854;20.580;2022-11-04T09:22:09;97999.34;;;9.84;83.41
21760;BME280;11041;50.854;20.580;2022-11-04T09:24:36;98008.19;;;9.90;83.35
21760;BME280;11041;50.854;20.580;2022-11-04T09:27:04;98011.22;;;9.97;82.91
21760;BME280;11041;50.854;20.580;2022-11-04T09:29:31;98017.63;;;10.10;82.98
21760;BME280;11041;50.854;20.580;2022-11-04T09:31:59;98013.41;;;10.12;82.70
21760;BME280;11041;50.854;20.580;2022-11-04T09:34:26;98000.31;;;10.18;82.98
21760;BME280;11041;50.854;20.580;2022-11-04T09:36:56;98000.78;;;10.29;82.15
21760;BME280;11041;50.854;20.580;2022-11-04T09:39:24;97991.53;;;10.33;82.05
21760;BME280;11041;50.854;20.580;2022-11-04T09:41:56;97999.38;;;10.43;81.49
21760;BME280;11041;50.854;20.580;2022-11-04T09:45:10;98007.09;;;10.50;81.33
21760;BME280;11041;50.854;20.580;2022-11-04T09:47:20;97987.56;;;10.52;80.46
21760;BME280;11041;50.854;20.580;2022-11-04T09:49:52;98001.69;;;10.62;80.47
21760;BME280;11041;50.854;20.580;2022-11-04T09:52:38;97990.31;;;10.73;78.81
21760;BME280;11041;50.854;20.580;2022-11-04T09:55:15;97986.69;;;10.81;79.22
21760;BME280;11041;50.854;20.580;2022-11-04T09:57:46;97991.50;;;10.84;79.70
21760;BME280;11041;50.854;20.580;2022-11-04T10:00:15;97989.84;;;10.92;79.84
21760;BME280;11041;50.854;20.580;2022-11-04T10:11:19;97979.00;;;11.28;77.25
21760;BME280;11041;50.854;20.580;2022-11-04T10:20:22;97968.75;;;11.50;76.97
21760;BME280;11041;50.854;20.580;2022-11-04T10:23:24;97970.59;;;11.58;75.50
21760;BME280;11041;50.854;20.580;2022-11-04T10:26:13;97967.63;;;11.63;75.81
21760;BME280;11041;50.854;20.580;2022-11-04T10:28:50;97965.81;;;11.67;75.70
21760;BME280;11041;50.854;20.580;2022-11-04T10:31:18;97968.00;;;11.74;76.11
21760;BME280;11041;50.854;20.580;2022-11-04T10:34:11;97963.63;;;11.85;75.84
21760;BME280;11041;50.854;20.580;2022-11-04T10:36:41;97945.66;;;11.88;73.60
21760;BME280;11041;50.854;20.580;2022-11-04T10:39:36;97941.06;;;11.92;74.30
21760;BME280;11041;50.854;20.580;2022-11-04T10:42:13;97945.88;;;11.95;73.57
21760;BME280;11041;50.854;20.580;2022-11-04T10:44:44;97948.22;;;11.93;73.93
21760;BME280;11041;50.854;20.580;2022-11-04T10:47:43;97949.09;;;11.97;74.24
21760;BME280;11041;50.854;20.580;2022-11-04T10:53:26;97933.97;;;11.91;73.37
21760;BME280;11041;50.854;20.580;2022-11-04T10:56:19;97933.50;;;12.01;73.51
21760;BME280;11041;50.854;20.580;2022-11-04T10:58:48;97930.75;;;12.01;74.08
21760;BME280;11041;50.854;20.580;2022-11-04T11:01:34;97943.97;;;12.08;74.07
21760;BME280;11041;50.854;20.580;2022-11-04T11:04:05;97925.94;;;12.10;74.15
21760;BME280;11041;50.854;20.580;2022-11-04T11:06:35;97944.16;;;12.27;74.15
21760;BME280;11041;50.854;20.580;2022-11-04T11:09:28;97940.84;;;12.34;73.65
21760;BME280;11041;50.854;20.580;2022-11-04T11:12:20;97933.59;;;12.42;73.43
21760;BME280;11041;50.854;20.580;2022-11-04T11:14:56;97930.84;;;12.42;73.19
21760;BME280;11041;50.854;20.580;2022-11-04T11:17:36;97928.63;;;12.47;73.00
21760;BME280;11041;50.854;20.580;2022-11-04T11:20:24;97938.50;;;12.61;72.35
21760;BME280;11041;50.854;20.580;2022-11-04T11:22:52;97918.50;;;12.64;72.65
21760;BME280;11041;50.854;20.580;2022-11-04T11:25:29;97925.22;;;12.78;73.17
21760;BME280;11041;50.854;20.580;2022-11-04T11:28:23;97909.69;;;12.86;72.14
21760;BME280;11041;50.854;20.580;2022-11-04T11:36:05;97889.69;;;12.89;71.12
21760;BME280;11041;50.854;20.580;2022-11-04T11:38:59;97892.19;;;12.94;71.17
21760;BME280;11041;50.854;20.580;2022-11-04T11:41:29;97886.22;;;12.92;71.03
21760;BME280;11041;50.854;20.580;2022-11-04T11:46:54;97883.94;;;12.94;71.57
21760;BME280;11041;50.854;20.580;2022-11-04T11:49:35;97892.38;;;13.02;71.46
21760;BME280;11041;50.854;20.580;2022-11-04T11:58:31;97891.69;;;13.05;71.21
21760;BME280;11041;50.854;20.580;2022-11-04T12:01:17;97877.78;;;13.01;70.91
21760;BME280;11041;50.854;20.580;2022-11-04T12:03:48;97874.06;;;13.09;71.33
21760;BME280;11041;50.854;20.580;2022-11-04T12:21:19;97865.38;;;13.23;67.83
21760;BME280;11041;50.854;20.580;2022-11-04T12:23:59;97859.88;;;13.23;67.77
21760;BME280;11041;50.854;20.580;2022-11-04T12:26:47;97865.59;;;13.30;68.41
21760;BME280;11041;50.854;20.580;2022-11-04T12:30:16;97862.56;;;13.35;68.10
21760;BME280;11041;50.854;20.580;2022-11-04T12:38:40;97872.81;;;13.35;67.63
21760;BME280;11041;50.854;20.580;2022-11-04T12:41:40;97860.59;;;13.36;67.98
21760;BME280;11041;50.854;20.580;2022-11-04T12:44:43;97856.25;;;13.35;67.70
21760;BME280;11041;50.854;20.580;2022-11-04T12:50:41;97860.25;;;13.37;68.21
21760;BME280;11041;50.854;20.580;2022-11-04T12:56:16;97846.47;;;13.37;67.99
21760;BME280;11041;50.854;20.580;2022-11-04T13:02:00;97840.19;;;13.25;67.38
21760;BME280;11041;50.854;20.580;2022-11-04T13:04:36;97839.38;;;13.24;67.80
21760;BME280;11041;50.854;20.580;2022-11-04T13:07:10;97840.97;;;13.25;67.77
21760;BME280;11041;50.854;20.580;2022-11-04T13:09:49;97845.84;;;13.28;68.25
21760;BME280;11041;50.854;20.580;2022-11-04T13:12:23;97829.88;;;13.21;68.35
21760;BME280;11041;50.854;20.580;2022-11-04T13:15:01;97840.56;;;13.23;68.64
21760;BME280;11041;50.854;20.580;2022-11-04T13:17:39;97840.97;;;13.25;68.32
21760;BME280;11041;50.854;20.580;2022-11-04T13:22:44;97845.25;;;13.22;68.53
21760;BME280;11041;50.854;20.580;2022-11-04T13:25:36;97852.66;;;13.18;68.64
21760;BME280;11041;50.854;20.580;2022-11-04T13:28:14;97851.47;;;13.19;68.68
21760;BME280;11041;50.854;20.580;2022-11-04T13:34:15;97845.25;;;13.07;68.14
21760;BME280;11041;50.854;20.580;2022-11-04T13:37:04;97835.16;;;12.98;68.54
21760;BME280;11041;50.854;20.580;2022-11-04T13:42:42;97835.16;;;12.98;67.99
21760;BME280;11041;50.854;20.580;2022-11-04T13:45:17;97826.28;;;12.89;68.24
21760;BME280;11041;50.854;20.580;2022-11-04T13:48:19;97835.34;;;12.90;68.73
21760;BME280;11041;50.854;20.580;2022-11-04T13:51:10;97830.97;;;12.89;69.01
21760;BME280;11041;50.854;20.580;2022-11-04T13:53:57;97830.97;;;12.89;69.48
21760;BME280;11041;50.854;20.580;2022-11-04T13:59:25;97835.94;;;12.83;69.81
21760;BME280;11041;50.854;20.580;2022-11-04T14:18:53;97843.97;;;12.60;71.24
21760;BME280;11041;50.854;20.580;2022-11-04T14:24:35;97845.72;;;12.52;71.87
21760;BME280;11041;50.854;20.580;2022-11-04T14:27:02;97843.00;;;12.40;72.00
21760;BME280;11041;50.854;20.580;2022-11-04T14:29:31;97835.53;;;12.41;71.90
21760;BME280;11041;50.854;20.580;2022-11-04T14:32:11;97851.72;;;12.42;72.00
21760;BME280;11041;50.854;20.580;2022-11-04T14:34:43;97850.81;;;12.38;72.37
21760;BME280;11041;50.854;20.580;2022-11-04T14:37:33;97849.09;;;12.33;72.12
21760;BME280;11041;50.854;20.580;2022-11-04T14:40:49;97851.56;;;12.23;72.14
21760;BME280;11041;50.854;20.580;2022-11-04T14:43:32;97863.03;;;12.25;72.24
21760;BME280;11041;50.854;20.580;2022-11-04T14:46:01;97871.97;;;12.22;72.69
21760;BME280;11041;50.854;20.580;2022-11-04T14:48:32;97869.91;;;12.19;73.00
21760;BME280;11041;50.854;20.580;2022-11-04T14:51:04;97861.44;;;12.11;73.37
21760;BME280;11041;50.854;20.580;2022-11-04T14:53:45;97861.44;;;12.11;73.55
21760;BME280;11041;50.854;20.580;2022-11-04T14:56:20;97866.41;;;12.06;73.36
21760;BME280;11041;50.854;20.580;2022-11-04T14:59:02;97863.41;;;11.99;73.70
21760;BME280;11041;50.854;20.580;2022-11-04T15:01:37;97858.72;;;11.87;74.34
21760;BME280;11041;50.854;20.580;2022-11-04T15:13:11;97854.69;;;11.72;74.36
21760;BME280;11041;50.854;20.580;2022-11-04T15:20:27;97840.25;;;11.63;74.47
21760;BME280;11041;50.854;20.580;2022-11-04T15:22:59;97833.72;;;11.55;74.71
21760;BME280;11041;50.854;20.580;2022-11-04T15:25:27;97833.13;;;11.49;74.08
21760;BME280;11041;50.854;20.580;2022-11-04T15:27:55;97824.44;;;11.47;74.23
21760;BME280;11041;50.854;20.580;2022-11-04T15:30:28;97830.28;;;11.46;74.82
21760;BME280;11041;50.854;20.580;2022-11-04T15:33:02;97829.47;;;11.45;74.52
21760;BME280;11041;50.854;20.580;2022-11-04T15:35:32;97843.22;;;11.45;74.69
21760;BME280;11041;50.854;20.580;2022-11-04T15:38:01;97834.38;;;11.40;75.10
21760;BME280;11041;50.854;20.580;2022-11-04T15:40:38;97834.28;;;11.36;75.38
21760;BME280;11041;50.854;20.580;2022-11-04T15:43:06;97843.56;;;11.32;75.14
21760;BME280;11041;50.854;20.580;2022-11-04T15:45:59;97841.38;;;11.25;75.71
21760;BME280;11041;50.854;20.580;2022-11-04T15:48:30;97843.66;;;11.23;76.15
21760;BME280;11041;50.854;20.580;2022-11-04T15:51:22;97838.75;;;11.16;76.76
21760;BME280;11041;50.854;20.580;2022-11-04T15:53:57;97841.69;;;11.11;76.68
21760;BME280;11041;50.854;20.580;2022-11-04T15:56:39;97849.13;;;11.11;76.83
21760;BME280;11041;50.854;20.580;2022-11-04T15:59:13;97831.03;;;10.97;76.89
21760;BME280;11041;50.854;20.580;2022-11-04T16:01:49;97827.91;;;10.99;77.27
21760;BME280;11041;50.854;20.580;2022-11-04T16:04:22;97834.91;;;10.96;77.36
21760;BME280;11041;50.854;20.580;2022-11-04T16:09:54;97845.53;;;10.85;77.36
21760;BME280;11041;50.854;20.580;2022-11-04T16:12:42;97855.84;;;10.88;77.75
21760;BME280;11041;50.854;20.580;2022-11-04T16:18:34;97847.81;;;10.83;77.70
21760;BME280;11041;50.854;20.580;2022-11-04T16:21:26;97853.41;;;10.87;77.36
21760;BME280;11041;50.854;20.580;2022-11-04T16:24:17;97851.34;;;10.84;77.85
21760;BME280;11041;50.854;20.580;2022-11-04T16:26:46;97839.31;;;10.76;77.92
21760;BME280;11041;50.854;20.580;2022-11-04T16:29:35;97843.22;;;10.75;78.07
21760;BME280;11041;50.854;20.580;2022-11-04T16:32:11;97846.16;;;10.70;78.13
21760;BME280;11041;50.854;20.580;2022-11-04T16:35:14;97850.25;;;10.64;77.99
21760;BME280;11041;50.854;20.580;2022-11-04T16:37:42;97839.69;;;10.54;77.48
21760;BME280;11041;50.854;20.580;2022-11-04T16:40:09;97850.22;;;10.52;77.87
21760;BME280;11041;50.854;20.580;2022-11-04T16:42:36;97841.38;;;10.46;77.40
21760;BME280;11041;50.854;20.580;2022-11-04T16:45:03;97828.66;;;10.41;77.64
21760;BME280;11041;50.854;20.580;2022-11-04T16:47:37;97842.72;;;10.40;77.64
21760;BME280;11041;50.854;20.580;2022-11-04T16:50:27;97836.44;;;10.39;77.63
21760;BME280;11041;50.854;20.580;2022-11-04T16:52:57;97835.03;;;10.33;77.63
21760;BME280;11041;50.854;20.580;2022-11-04T16:55:25;97839.09;;;10.27;77.87
21760;BME280;11041;50.854;20.580;2022-11-04T16:58:03;97832.97;;;10.21;77.46
21760;BME280;11041;50.854;20.580;2022-11-04T17:00:31;97824.84;;;10.13;77.35
21760;BME280;11041;50.854;20.580;2022-11-04T17:03:16;97823.22;;;10.12;77.38